createdAt,value
2022-09-14T00:01:37.542Z,9.81
2022-09-14T00:04:11.126Z,9.78
2022-09-14T00:06:39.153Z,9.83
2022-09-14T00:09:08.186Z,9.85
2022-09-14T00:11:37.395Z,9.85
2022-09-14T00:14:06.642Z,9.83
2022-09-14T00:16:38.462Z,9.89
2022-09-14T00:19:14.051Z,9.90
2022-09-14T00:21:42.950Z,9.79
2022-09-14T00:24:11.916Z,9.94
2022-09-14T00:26:39.749Z,9.79
2022-09-14T00:29:08.048Z,9.77
2022-09-14T00:31:38.847Z,9.84
2022-09-14T00:34:10.000Z,9.81
2022-09-14T00:36:43.704Z,9.86
2022-09-14T00:39:12.704Z,9.87
2022-09-14T00:41:44.668Z,9.85
2022-09-14T00:44:13.150Z,9.92
2022-09-14T00:46:46.703Z,9.92
2022-09-14T00:49:20.995Z,9.88
2022-09-14T00:52:15.718Z,9.83
2022-09-14T00:54:50.182Z,9.83
2022-09-14T00:57:19.181Z,9.85
2022-09-14T00:59:50.062Z,9.82
2022-09-14T01:02:22.444Z,9.87
2022-09-14T01:04:51.765Z,9.77
2022-09-14T01:07:31.932Z,9.90
2022-09-14T01:10:23.853Z,10.00
2022-09-14T01:13:29.198Z,9.96
2022-09-14T01:16:41.725Z,9.98
2022-09-14T01:19:23.891Z,10.01
2022-09-14T01:21:55.507Z,9.95
2022-09-14T01:24:28.192Z,9.97
2022-09-14T01:26:56.109Z,9.96
2022-09-14T01:29:30.027Z,9.95
2022-09-14T01:32:06.653Z,10.02
2022-09-14T01:34:49.146Z,10.03
2022-09-14T01:37:24.682Z,10.01
2022-09-14T01:40:15.152Z,10.01
2022-09-14T01:42:49.407Z,10.03
2022-09-14T01:45:19.624Z,9.99
2022-09-14T01:47:54.393Z,9.95
2022-09-14T01:50:32.104Z,9.99
2022-09-14T01:53:15.343Z,9.98
2022-09-14T01:55:49.023Z,10.02
2022-09-14T01:58:43.241Z,9.97
2022-09-14T02:01:35.585Z,10.08
2022-09-14T02:04:09.302Z,10.04
2022-09-14T02:06:43.868Z,10.01
2022-09-14T02:09:14.703Z,9.99
2022-09-14T02:11:42.787Z,9.97
2022-09-14T02:14:11.202Z,10.01
2022-09-14T02:16:43.722Z,10.02
2022-09-14T02:19:11.587Z,9.97
2022-09-14T02:21:41.288Z,10.01
2022-09-14T02:24:10.288Z,10.04
2022-09-14T02:26:39.694Z,10.03
2022-09-14T02:29:08.008Z,10.07
2022-09-14T02:32:03.383Z,10.01
2022-09-14T02:35:09.713Z,10.01
2022-09-14T02:37:56.176Z,10.02
2022-09-14T02:40:38.262Z,10.03
2022-09-14T02:43:30.417Z,10.03
2022-09-14T02:46:10.597Z,10.07
2022-09-14T02:49:05.080Z,10.03
2022-09-14T02:51:44.403Z,9.98
2022-09-14T02:54:25.023Z,10.00
2022-09-14T02:56:53.051Z,10.04
2022-09-14T02:59:20.786Z,10.03
2022-09-14T03:01:48.537Z,10.00
2022-09-14T03:04:16.848Z,10.00
2022-09-14T03:06:44.603Z,10.05
2022-09-14T03:09:12.291Z,10.04
2022-09-14T03:11:40.449Z,10.07
2022-09-14T03:14:10.075Z,10.04
2022-09-14T03:16:39.272Z,10.08
2022-09-14T03:19:07.450Z,10.08
2022-09-14T03:21:35.230Z,10.13
2022-09-14T03:24:03.623Z,10.08
2022-09-14T03:26:31.709Z,10.09
2022-09-14T03:29:00.040Z,10.11
2022-09-14T03:31:28.010Z,10.09
2022-09-14T03:33:58.480Z,10.11
2022-09-14T03:36:28.464Z,10.17
2022-09-14T03:38:59.316Z,10.16
2022-09-14T03:41:27.214Z,10.17
2022-09-14T03:43:55.002Z,10.17
2022-09-14T03:46:25.906Z,10.23
2022-09-14T03:48:55.467Z,10.23
2022-09-14T03:51:24.288Z,10.20
2022-09-14T03:53:52.487Z,10.22
2022-09-14T03:56:22.899Z,10.20
2022-09-14T03:58:51.561Z,10.26
2022-09-14T04:01:22.198Z,10.30
2022-09-14T04:03:51.234Z,10.36
2022-09-14T04:06:19.970Z,10.37
2022-09-14T04:08:48.271Z,10.34
2022-09-14T04:11:24.944Z,10.35
2022-09-14T04:13:53.522Z,10.38
2022-09-14T04:16:22.679Z,10.38
2022-09-14T04:18:50.536Z,10.41
2022-09-14T04:21:21.521Z,10.40
2022-09-14T04:26:40.478Z,10.41
2022-09-14T04:29:10.840Z,10.51
2022-09-14T04:31:38.762Z,10.53
2022-09-14T04:34:07.012Z,10.53
2022-09-14T04:36:35.248Z,10.57
2022-09-14T04:39:04.224Z,10.58
2022-09-14T04:41:32.562Z,10.60
2022-09-14T04:44:01.150Z,10.66
2022-09-14T04:46:31.840Z,10.79
2022-09-14T04:51:45.809Z,10.72
2022-09-14T04:54:16.673Z,10.85
2022-09-14T04:56:45.348Z,10.83
2022-09-14T04:59:13.463Z,10.89
2022-09-14T05:01:44.154Z,10.95
2022-09-14T05:04:12.780Z,10.94
2022-09-14T05:06:42.346Z,10.94
2022-09-14T05:09:16.111Z,11.01
2022-09-14T05:11:44.657Z,10.97
2022-09-14T05:14:14.569Z,11.01
2022-09-14T05:16:43.719Z,11.03
2022-09-14T05:19:14.916Z,11.03
2022-09-14T05:21:43.114Z,11.05
2022-09-14T05:24:15.103Z,11.11
2022-09-14T05:26:44.924Z,11.17
2022-09-14T05:29:15.049Z,11.22
2022-09-14T05:31:43.850Z,11.28
2022-09-14T05:34:12.463Z,11.33
2022-09-14T05:36:41.316Z,11.32
2022-09-14T05:39:10.155Z,11.37
2022-09-14T05:41:38.303Z,11.41
2022-09-14T05:44:06.832Z,11.41
2022-09-14T05:46:35.248Z,11.42
2022-09-14T05:49:07.148Z,11.47
2022-09-14T05:51:35.516Z,11.55
2022-09-14T05:54:09.783Z,11.58
2022-09-14T05:56:38.162Z,11.63
2022-09-14T05:59:05.943Z,11.63
2022-09-14T06:01:34.330Z,11.75
2022-09-14T06:04:03.121Z,11.93
2022-09-14T06:06:33.146Z,12.08
2022-09-14T06:09:01.983Z,12.13
2022-09-14T06:11:33.426Z,12.25
2022-09-14T06:14:01.392Z,12.31
2022-09-14T06:16:29.969Z,12.32
2022-09-14T06:18:59.563Z,12.42
2022-09-14T06:21:33.786Z,12.52
2022-09-14T06:24:02.265Z,12.58
2022-09-14T06:26:30.716Z,12.57
2022-09-14T06:28:58.889Z,12.64
2022-09-14T06:31:27.125Z,12.68
2022-09-14T06:33:55.257Z,12.73
2022-09-14T06:36:25.764Z,12.78
2022-09-14T06:38:55.338Z,12.69
2022-09-14T06:41:30.810Z,12.77
2022-09-14T06:44:01.971Z,12.74
2022-09-14T06:46:32.484Z,12.80
2022-09-14T06:49:05.200Z,12.72
2022-09-14T06:51:38.805Z,12.60
2022-09-14T06:54:07.841Z,12.67
2022-09-14T06:56:38.166Z,12.67
2022-09-14T06:59:07.859Z,12.79
2022-09-14T07:01:36.935Z,12.78
2022-09-14T07:04:05.684Z,12.72
2022-09-14T07:06:45.320Z,12.66
2022-09-14T07:09:14.633Z,12.64
2022-09-14T07:11:43.673Z,12.66
2022-09-14T07:14:12.516Z,12.76
2022-09-14T07:16:41.448Z,12.79
2022-09-14T07:19:14.582Z,12.67
2022-09-14T07:21:43.299Z,12.63
2022-09-14T07:24:13.534Z,12.58
2022-09-14T07:26:45.859Z,12.61
2022-09-14T07:29:19.569Z,12.56
2022-09-14T07:31:50.159Z,12.38
2022-09-14T07:34:19.360Z,12.34
2022-09-14T07:36:47.283Z,12.27
2022-09-14T07:39:16.908Z,12.37
2022-09-14T07:41:45.771Z,12.50
2022-09-14T07:44:17.972Z,12.69
2022-09-14T07:46:47.265Z,12.83
2022-09-14T07:49:16.709Z,12.79
2022-09-14T07:51:44.954Z,12.74
2022-09-14T07:54:15.272Z,12.72
2022-09-14T07:56:43.907Z,12.80
2022-09-14T08:02:01.900Z,13.01
2022-09-14T08:04:29.431Z,13.20
2022-09-14T08:06:56.884Z,13.19
2022-09-14T08:09:24.331Z,13.09
2022-09-14T08:11:51.925Z,13.15
2022-09-14T08:14:19.316Z,13.28
2022-09-14T08:16:46.889Z,13.49
2022-09-14T08:19:17.352Z,13.64
2022-09-14T08:21:47.647Z,13.74
2022-09-14T08:24:21.128Z,13.75
2022-09-14T08:26:49.091Z,13.88
2022-09-14T08:29:18.363Z,13.70
2022-09-14T08:31:47.461Z,13.78
2022-09-14T08:34:16.403Z,13.81
2022-09-14T08:36:45.759Z,13.81
2022-09-14T08:39:16.279Z,13.81
2022-09-14T08:41:53.680Z,13.99
2022-09-14T08:44:26.505Z,14.11
2022-09-14T08:47:05.989Z,14.32
2022-09-14T08:49:45.668Z,14.54
2022-09-14T08:52:27.370Z,14.75
2022-09-14T08:54:58.219Z,14.72
2022-09-14T08:57:40.119Z,14.59
2022-09-14T09:00:17.800Z,14.40
2022-09-14T09:02:57.450Z,14.30
2022-09-14T09:05:35.165Z,14.53
2022-09-14T09:08:06.359Z,14.75
2022-09-14T09:10:38.201Z,14.86
2022-09-14T09:13:10.678Z,14.78
2022-09-14T09:15:45.502Z,14.88
2022-09-14T09:18:42.939Z,15.27
2022-09-14T09:21:24.215Z,15.35
2022-09-14T09:23:52.468Z,15.47
2022-09-14T09:26:26.063Z,15.47
2022-09-14T09:28:57.836Z,15.62
2022-09-14T09:31:56.715Z,15.27
2022-09-14T09:34:30.735Z,14.99
2022-09-14T09:37:17.249Z,14.61
2022-09-14T09:39:45.692Z,14.60
2022-09-14T09:42:28.561Z,14.80
2022-09-14T09:45:03.212Z,14.71
2022-09-14T09:47:39.914Z,14.43
2022-09-14T09:50:13.951Z,14.77
2022-09-14T09:53:04.495Z,14.69
2022-09-14T09:55:39.561Z,14.77
2022-09-14T09:58:23.333Z,14.97
2022-09-14T10:01:01.376Z,14.88
2022-09-14T10:03:33.191Z,14.82
2022-09-14T10:06:03.465Z,14.69
2022-09-14T10:08:35.471Z,14.81
2022-09-14T10:11:04.026Z,14.81
2022-09-14T10:13:38.377Z,14.72
2022-09-14T10:16:16.801Z,14.69
2022-09-14T10:18:49.060Z,14.60
2022-09-14T10:21:22.116Z,14.41
2022-09-14T10:24:03.738Z,14.38
2022-09-14T10:26:36.879Z,14.17
2022-09-14T10:29:40.190Z,13.94
2022-09-14T10:32:24.462Z,13.78
2022-09-14T10:34:53.420Z,13.54
2022-09-14T10:37:51.001Z,13.69
2022-09-14T10:40:25.844Z,13.60
2022-09-14T10:43:16.423Z,13.87
2022-09-14T10:45:55.925Z,14.09
2022-09-14T10:48:24.220Z,14.32
2022-09-14T10:51:01.358Z,14.58
2022-09-14T10:53:49.509Z,15.08
2022-09-14T10:57:02.981Z,15.41
2022-09-14T10:59:49.846Z,15.60
2022-09-14T11:02:58.004Z,15.78
2022-09-14T11:05:32.059Z,15.72
2022-09-14T11:08:35.833Z,15.21
2022-09-14T11:11:30.678Z,15.05
2022-09-14T11:14:10.919Z,14.61
2022-09-14T11:17:13.201Z,14.76
2022-09-14T11:20:00.890Z,14.79
2022-09-14T11:22:30.434Z,14.86
2022-09-14T11:25:06.449Z,15.30
2022-09-14T11:27:46.780Z,15.44
2022-09-14T11:30:19.193Z,15.61
2022-09-14T11:32:56.377Z,15.65
2022-09-14T11:35:45.873Z,15.57
2022-09-14T11:38:21.239Z,15.42
2022-09-14T11:40:49.394Z,15.51
2022-09-14T11:43:35.903Z,15.42
2022-09-14T11:46:12.390Z,15.52
2022-09-14T11:48:58.440Z,15.38
2022-09-14T11:51:33.950Z,15.38
2022-09-14T11:54:01.971Z,15.36
2022-09-14T11:56:32.617Z,15.17
2022-09-14T11:59:05.788Z,15.22
2022-09-14T12:01:41.044Z,15.24
2022-09-14T12:04:15.402Z,15.16
2022-09-14T12:06:46.943Z,15.06
2022-09-14T12:09:17.775Z,15.22
2022-09-14T12:11:46.584Z,15.03
2022-09-14T12:14:30.593Z,15.24
2022-09-14T12:20:24.925Z,15.53
2022-09-14T12:23:06.857Z,15.65
2022-09-14T12:25:35.490Z,15.76
2022-09-14T12:28:03.719Z,15.93
2022-09-14T12:30:41.318Z,15.73
2022-09-14T12:33:32.870Z,16.03
2022-09-14T12:36:01.738Z,15.87
2022-09-14T12:38:29.909Z,15.78
2022-09-14T12:41:02.975Z,15.80
2022-09-14T12:43:33.963Z,15.72
2022-09-14T12:46:12.030Z,15.66
2022-09-14T12:48:49.489Z,15.49
2022-09-14T12:51:48.682Z,15.46
2022-09-14T12:54:34.485Z,15.24
2022-09-14T12:57:41.385Z,15.19
2022-09-14T13:00:16.219Z,15.22
2022-09-14T13:02:53.789Z,15.26
2022-09-14T13:05:26.113Z,15.33
2022-09-14T13:07:55.514Z,15.41
2022-09-14T13:10:29.500Z,15.26
2022-09-14T13:12:58.017Z,15.09
2022-09-14T13:15:37.228Z,15.06
2022-09-14T13:18:30.586Z,15.17
2022-09-14T13:21:01.746Z,14.99
2022-09-14T13:23:38.878Z,14.63
2022-09-14T13:26:18.213Z,15.00
2022-09-14T13:28:47.832Z,15.01
2022-09-14T13:31:42.746Z,15.00
2022-09-14T13:34:22.416Z,14.61
2022-09-14T13:36:51.260Z,14.89
2022-09-14T13:39:27.447Z,14.95
2022-09-14T13:41:57.178Z,15.12
2022-09-14T13:44:31.930Z,14.88
2022-09-14T13:47:04.573Z,14.94
2022-09-14T13:49:34.594Z,14.90
2022-09-14T13:52:34.047Z,14.88
2022-09-14T13:55:35.894Z,14.87
2022-09-14T13:58:09.986Z,14.83
2022-09-14T14:00:55.176Z,14.84
2022-09-14T14:03:49.946Z,14.73
2022-09-14T14:06:25.553Z,14.55
2022-09-14T14:09:07.098Z,14.55
2022-09-14T14:11:42.025Z,14.63
2022-09-14T14:14:17.567Z,14.31
2022-09-14T14:17:13.335Z,14.36
2022-09-14T14:19:44.526Z,14.57
2022-09-14T14:22:15.141Z,14.64
2022-09-14T14:25:11.759Z,14.57
2022-09-14T14:28:00.953Z,14.76
2022-09-14T14:30:36.919Z,14.59
2022-09-14T14:33:07.026Z,14.54
2022-09-14T14:35:34.794Z,14.42
2022-09-14T14:38:02.561Z,14.30
2022-09-14T14:40:32.460Z,14.24
2022-09-14T14:43:03.873Z,14.11
2022-09-14T14:45:36.356Z,14.15
2022-09-14T14:48:05.079Z,14.17
2022-09-14T14:50:36.297Z,14.30
2022-09-14T14:53:05.538Z,14.23
2022-09-14T14:55:35.915Z,14.05
2022-09-14T14:58:07.473Z,14.10
2022-09-14T15:00:37.415Z,14.27
2022-09-14T15:03:05.407Z,14.15
2022-09-14T15:05:33.283Z,14.06
2022-09-14T15:08:01.589Z,13.95
2022-09-14T15:10:30.815Z,13.79
2022-09-14T15:13:01.640Z,13.59
2022-09-14T15:15:32.585Z,13.25
2022-09-14T15:18:00.648Z,13.26
2022-09-14T15:20:31.335Z,13.35
2022-09-14T15:22:59.609Z,13.40
2022-09-14T15:25:27.821Z,13.22
2022-09-14T15:27:58.220Z,13.28
2022-09-14T15:30:29.628Z,13.25
2022-09-14T15:32:58.148Z,13.25
2022-09-14T15:35:26.888Z,13.12
2022-09-14T15:38:00.027Z,13.00
2022-09-14T15:40:28.551Z,12.92
2022-09-14T15:42:59.144Z,13.13
2022-09-14T15:45:30.206Z,12.87
2022-09-14T15:47:58.015Z,12.93
2022-09-14T15:50:26.416Z,12.63
2022-09-14T15:53:02.377Z,12.59
2022-09-14T15:55:30.560Z,12.70
2022-09-14T15:57:58.984Z,12.69
2022-09-14T16:00:33.456Z,12.50
2022-09-14T16:03:05.083Z,12.45
2022-09-14T16:05:34.588Z,12.39
2022-09-14T16:08:05.824Z,12.50
2022-09-14T16:10:34.530Z,12.42
2022-09-14T16:13:02.856Z,12.41
2022-09-14T16:15:30.775Z,12.19
2022-09-14T16:17:59.060Z,12.27
2022-09-14T16:20:27.549Z,12.17
2022-09-14T16:22:55.461Z,12.00
2022-09-14T16:25:23.357Z,11.97
2022-09-14T16:27:51.573Z,11.94
2022-09-14T16:30:19.627Z,11.80
2022-09-14T16:32:47.770Z,11.85
2022-09-14T16:35:16.055Z,11.77
2022-09-14T16:37:47.015Z,11.82
2022-09-14T16:40:15.453Z,11.85
2022-09-14T16:42:43.337Z,12.04
2022-09-14T16:45:11.348Z,11.91
2022-09-14T16:47:39.564Z,12.16
2022-09-14T16:50:07.598Z,12.01
2022-09-14T16:52:35.359Z,12.12
2022-09-14T16:55:03.569Z,11.96
2022-09-14T16:57:31.524Z,11.95
2022-09-14T16:59:59.390Z,11.88
2022-09-14T17:02:27.885Z,11.81
2022-09-14T17:04:55.767Z,12.02
2022-09-14T17:07:24.146Z,11.89
2022-09-14T17:09:52.582Z,12.00
2022-09-14T17:12:20.630Z,12.13
2022-09-14T17:14:48.466Z,11.92
2022-09-14T17:17:16.726Z,11.79
2022-09-14T17:19:47.139Z,11.90
2022-09-14T17:22:14.984Z,11.73
2022-09-14T17:24:43.146Z,11.73
2022-09-14T17:27:11.273Z,11.69
2022-09-14T17:29:41.160Z,11.49
2022-09-14T17:32:14.668Z,11.41
2022-09-14T17:34:43.470Z,11.54
2022-09-14T17:37:11.651Z,11.36
2022-09-14T17:39:39.477Z,11.47
2022-09-14T17:42:07.530Z,11.47
2022-09-14T17:47:21.192Z,11.49
2022-09-14T17:49:49.539Z,11.38
2022-09-14T17:52:17.427Z,11.48
2022-09-14T17:54:45.271Z,11.45
2022-09-14T17:57:13.535Z,11.53
2022-09-14T17:59:41.466Z,11.48
2022-09-14T18:02:10.329Z,11.45
2022-09-14T18:04:38.649Z,11.48
2022-09-14T18:07:06.860Z,11.49
2022-09-14T18:09:34.740Z,11.44
2022-09-14T18:12:03.299Z,11.43
2022-09-14T18:14:33.447Z,11.36
2022-09-14T18:17:01.353Z,11.38
2022-09-14T18:19:29.605Z,11.35
2022-09-14T18:21:57.319Z,11.41
2022-09-14T18:24:25.059Z,11.34
2022-09-14T18:26:53.216Z,11.42
2022-09-14T18:29:21.684Z,11.53
2022-09-14T18:31:50.572Z,11.54
2022-09-14T18:34:19.563Z,11.42
2022-09-14T18:36:47.761Z,11.46
2022-09-14T18:39:15.495Z,11.45
2022-09-14T18:41:44.020Z,11.39
2022-09-14T18:44:11.790Z,11.55
2022-09-14T18:46:39.631Z,11.46
2022-09-14T18:49:07.839Z,11.42
2022-09-14T18:51:35.739Z,11.43
2022-09-14T18:54:06.297Z,11.33
2022-09-14T18:56:36.482Z,11.29
2022-09-14T18:59:06.274Z,11.23
2022-09-14T19:01:38.267Z,11.18
2022-09-14T19:04:08.547Z,11.13
2022-09-14T19:06:37.998Z,11.16
2022-09-14T19:09:07.012Z,11.11
2022-09-14T19:11:36.302Z,11.14
2022-09-14T19:14:10.590Z,11.09
2022-09-14T19:16:40.704Z,11.25
2022-09-14T19:19:11.187Z,11.14
2022-09-14T19:21:39.414Z,11.17
2022-09-14T19:24:17.571Z,11.20
2022-09-14T19:26:48.427Z,11.29
2022-09-14T19:29:23.047Z,11.44
2022-09-14T19:31:52.525Z,11.39
2022-09-14T19:34:22.469Z,11.36
2022-09-14T19:36:50.828Z,11.32
2022-09-14T19:39:18.957Z,11.38
2022-09-14T19:41:49.948Z,11.45
2022-09-14T19:44:17.967Z,11.48
2022-09-14T19:46:46.209Z,11.51
2022-09-14T19:49:21.534Z,11.47
2022-09-14T19:51:50.078Z,11.45
2022-09-14T19:54:18.535Z,11.50
2022-09-14T19:56:46.980Z,11.58
2022-09-14T19:59:16.855Z,11.57
2022-09-14T20:01:45.131Z,11.53
2022-09-14T20:04:15.909Z,11.48
2022-09-14T20:06:47.374Z,11.46
2022-09-14T20:09:18.313Z,11.42
2022-09-14T20:11:51.293Z,11.38
2022-09-14T20:14:22.567Z,11.37
2022-09-14T20:16:56.250Z,11.39
2022-09-14T20:19:29.049Z,11.46
2022-09-14T20:21:57.843Z,11.41
2022-09-14T20:24:28.646Z,11.46
2022-09-14T20:26:59.721Z,11.40
2022-09-14T20:29:30.886Z,11.41
2022-09-14T20:31:59.454Z,11.43
2022-09-14T20:34:27.925Z,11.51
2022-09-14T20:36:56.688Z,11.57
2022-09-14T20:42:09.897Z,11.46
2022-09-14T20:44:37.569Z,11.38
2022-09-14T20:47:05.702Z,11.39
2022-09-14T20:49:36.866Z,11.44
2022-09-14T20:52:04.715Z,11.51
2022-09-14T20:54:32.582Z,11.51
2022-09-14T20:57:04.458Z,11.50
2022-09-14T20:59:32.786Z,11.47
2022-09-14T21:02:07.197Z,11.50
2022-09-14T21:04:36.284Z,11.60
2022-09-14T21:07:04.344Z,11.51
2022-09-14T21:09:32.327Z,11.57
2022-09-14T21:12:00.454Z,11.58
2022-09-14T21:14:28.885Z,11.54
2022-09-14T21:16:57.725Z,11.52
2022-09-14T21:19:28.049Z,11.54
2022-09-14T21:21:56.736Z,11.57
2022-09-14T21:24:25.561Z,11.60
2022-09-14T21:26:53.336Z,11.64
2022-09-14T21:29:24.102Z,11.76
2022-09-14T21:31:52.881Z,11.68
2022-09-14T21:34:21.073Z,11.71
2022-09-14T21:36:51.632Z,11.71
2022-09-14T21:39:23.519Z,11.67
2022-09-14T21:41:59.221Z,11.63
2022-09-14T21:44:36.099Z,11.66
2022-09-14T21:47:05.197Z,11.67
2022-09-14T21:49:32.924Z,11.62
2022-09-14T21:52:00.724Z,11.80
2022-09-14T21:54:28.944Z,11.77
2022-09-14T21:56:56.761Z,11.76
2022-09-14T21:59:24.607Z,11.74
2022-09-14T22:01:53.238Z,11.69
2022-09-14T22:04:24.234Z,11.64
2022-09-14T22:06:52.436Z,11.62
2022-09-14T22:09:22.872Z,11.60
2022-09-14T22:11:51.667Z,11.62
2022-09-14T22:14:21.975Z,11.58
2022-09-14T22:16:49.947Z,11.61
2022-09-14T22:19:19.664Z,11.65
2022-09-14T22:21:47.450Z,11.63
2022-09-14T22:24:26.006Z,11.67
2022-09-14T22:26:55.018Z,11.70
2022-09-14T22:29:22.873Z,11.63
2022-09-14T22:31:51.122Z,11.62
2022-09-14T22:34:19.531Z,11.63
2022-09-14T22:36:48.021Z,11.62
2022-09-14T22:39:15.867Z,11.59
2022-09-14T22:41:44.034Z,11.59
2022-09-14T22:44:13.167Z,11.59
2022-09-14T22:46:41.047Z,11.65
2022-09-14T22:49:11.405Z,11.63
2022-09-14T22:51:39.525Z,11.64
2022-09-14T22:54:07.648Z,11.67
2022-09-14T22:56:38.882Z,11.69
2022-09-14T23:01:54.522Z,11.68
2022-09-14T23:04:22.298Z,11.72
2022-09-14T23:06:50.483Z,11.70
2022-09-14T23:09:22.363Z,11.67
2022-09-14T23:11:50.118Z,11.69
2022-09-14T23:14:18.446Z,11.78
2022-09-14T23:16:46.470Z,11.74
2022-09-14T23:19:17.309Z,11.74
2022-09-14T23:21:46.176Z,11.75
2022-09-14T23:24:14.337Z,11.75
2022-09-14T23:26:42.138Z,11.73
2022-09-14T23:29:15.196Z,11.70
2022-09-14T23:31:43.268Z,11.61
2022-09-14T23:34:11.476Z,11.45
2022-09-14T23:36:39.272Z,11.61
2022-09-14T23:39:07.316Z,11.49
2022-09-14T23:41:35.484Z,11.50
2022-09-14T23:44:03.546Z,11.36
2022-09-14T23:46:31.318Z,11.34
2022-09-14T23:48:59.487Z,11.39
2022-09-14T23:51:27.557Z,11.31
2022-09-14T23:53:55.291Z,11.22
2022-09-14T23:56:23.999Z,11.18
2022-09-14T23:58:52.198Z,11.10
